Time;durP1;ratioP1;P1;durP2;ratioP2;P2;SDS_P1;SDS_P2;PMS_P1;PMS_P2;Temp;Humidity;BMP_temperature;BMP_pressure;BME280_temperature;BME280_humidity;BME280_pressure;Samples;Min_cycle;Max_cycle;Signal;HPM_P1;HPM_P2
2023/11/16 00:02:27;;;;;;;1.38;0.93;;;;;;;20.64;43.76;101120.31;5063193;28;20244;-72
2023/11/16 00:04:53;;;;;;;2.30;1.10;;;;;;;20.66;43.52;101127.09;5061696;28;20044;-72
2023/11/16 00:07:18;;;;;;;2.92;1.25;;;;;;;20.63;43.83;101127.41;5068390;28;20105;-72
2023/11/16 00:09:44;;;;;;;1.92;1.17;;;;;;;20.61;43.79;101126.78;5063414;28;20045;-72
2023/11/16 00:12:11;;;;;;;1.42;0.80;;;;;;;20.63;43.76;101130.06;5087098;28;20065;-71
2023/11/16 00:14:38;;;;;;;1.73;1.00;;;;;;;20.62;43.55;101131.06;5066696;28;20066;-72
2023/11/16 00:17:07;;;;;;;1.52;0.80;;;;;;;20.61;43.67;101112.72;5067752;28;20041;-71
2023/11/16 00:19:35;;;;;;;1.15;0.90;;;;;;;20.59;43.64;101122.66;5073664;28;20394;-72
2023/11/16 00:22:01;;;;;;;1.00;0.77;;;;;;;20.60;43.43;101134.91;5065522;28;20059;-72
2023/11/16 00:24:27;;;;;;;2.58;1.27;;;;;;;20.50;43.67;101119.28;5073326;28;20040;-72
2023/11/16 00:26:54;;;;;;;1.60;0.90;;;;;;;20.55;43.52;101130.16;5066720;28;20105;-72
2023/11/16 00:29:20;;;;;;;4.00;1.10;;;;;;;20.55;43.72;101131.97;5064651;28;20037;-72
2023/11/16 00:31:45;;;;;;;1.77;1.17;;;;;;;20.59;43.56;101135.91;5063208;28;20094;-72
2023/11/16 00:34:11;;;;;;;2.20;1.13;;;;;;;20.48;43.56;101126.56;5067727;28;20043;-72
2023/11/16 00:36:39;;;;;;;1.75;0.93;;;;;;;20.56;43.73;101144.19;5063152;28;20111;-72
2023/11/16 00:39:07;;;;;;;3.00;1.10;;;;;;;20.56;43.56;101147.66;5066107;28;20052;-72
2023/11/16 00:41:34;;;;;;;1.65;0.90;;;;;;;20.51;43.63;101147.38;5063938;28;20032;-72
2023/11/16 00:44:05;;;;;;;1.60;0.90;;;;;;;20.50;43.74;101143.91;5066928;28;20532;-72
2023/11/16 00:46:32;;;;;;;2.58;0.90;;;;;;;20.54;43.65;101162.06;5064106;28;20625;-72
2023/11/16 00:48:58;;;;;;;1.02;0.77;;;;;;;20.44;43.56;101152.53;5061088;28;20044;-71
2023/11/16 00:51:24;;;;;;;2.70;1.25;;;;;;;20.51;43.47;101179.94;5066328;28;20513;-72
2023/11/16 00:53:50;;;;;;;3.90;1.25;;;;;;;20.52;43.45;101178.94;5064590;28;20044;-72
2023/11/16 00:56:17;;;;;;;1.20;0.80;;;;;;;20.55;43.43;101203.41;5065928;28;20039;-72
2023/11/16 00:58:44;;;;;;;2.38;0.88;;;;;;;20.52;43.68;101202.75;5064395;28;20040;-72
2023/11/16 01:01:12;;;;;;;2.05;1.00;;;;;;;20.50;43.69;101204.75;5067796;28;20024;-72
2023/11/16 01:03:39;;;;;;;1.85;1.00;;;;;;;20.46;43.64;101215.84;5064474;28;20444;-71
2023/11/16 01:06:05;;;;;;;2.42;0.75;;;;;;;20.49;43.64;101215.53;5059892;28;20056;-72
2023/11/16 01:08:33;;;;;;;2.20;1.13;;;;;;;20.43;43.51;101213.53;5063154;28;20044;-72
2023/11/16 01:11:02;;;;;;;2.65;0.70;;;;;;;20.40;43.62;101212.03;5064706;28;20102;-71
2023/11/16 01:13:38;;;;;;;0.95;0.85;;;;;;;20.48;43.76;101232.38;5060474;28;20047;-72
2023/11/16 01:16:09;;;;;;;0.93;0.70;;;;;;;20.41;43.70;101226.94;5063615;28;20035;-71
2023/11/16 01:18:42;;;;;;;2.00;1.20;;;;;;;20.45;43.81;101243.28;5067246;28;20403;-71
2023/11/16 01:21:08;;;;;;;1.80;1.02;;;;;;;20.44;43.59;101241.66;5064839;28;20451;-72
2023/11/16 01:23:36;;;;;;;3.72;1.63;;;;;;;20.45;43.55;101260.00;5066243;28;20147;-72
2023/11/16 01:26:03;;;;;;;1.90;0.90;;;;;;;20.39;43.81;101259.84;5069329;28;20048;-72
2023/11/16 01:28:31;;;;;;;2.15;0.98;;;;;;;20.36;43.86;101255.72;5063996;28;20193;-72
2023/11/16 01:30:57;;;;;;;1.73;0.88;;;;;;;20.38;43.80;101263.47;5066166;28;20466;-72
2023/11/16 01:33:22;;;;;;;3.92;1.10;;;;;;;20.43;43.61;101271.75;5066987;28;20052;-72
2023/11/16 01:35:50;;;;;;;1.60;0.80;;;;;;;20.42;43.73;101270.91;5055880;28;20056;-72
2023/11/16 01:38:16;;;;;;;1.55;1.00;;;;;;;20.38;43.71;101264.31;5061755;28;20593;-72
2023/11/16 01:40:42;;;;;;;2.65;1.17;;;;;;;20.39;43.78;101278.34;5059830;28;20054;-72
2023/11/16 01:43:08;;;;;;;1.45;0.60;;;;;;;20.41;43.82;101289.63;5064926;28;20042;-72
2023/11/16 01:45:34;;;;;;;2.33;0.77;;;;;;;20.39;43.55;101295.03;5062481;28;20060;-72
2023/11/16 01:48:03;;;;;;;1.63;0.80;;;;;;;20.34;43.70;101299.22;5063427;28;20678;-72
2023/11/16 01:50:30;;;;;;;1.70;0.80;;;;;;;20.38;43.79;101306.63;5061738;28;20801;-72
2023/11/16 01:53:05;;;;;;;1.10;0.73;;;;;;;20.33;43.49;101302.84;5066251;28;20114;-72
2023/11/16 01:55:35;;;;;;;1.33;0.68;;;;;;;20.37;43.78;101326.13;5063089;28;20032;-72
2023/11/16 01:58:05;;;;;;;1.63;0.88;;;;;;;20.38;43.66;101333.06;5076921;28;20039;-72
2023/11/16 02:00:35;;;;;;;;;;;;;;;20.34;43.70;101333.59;5067807;28;20535;-72
2023/11/16 02:03:05;;;;;;;3.38;1.60;;;;;;;20.34;43.80;101339.72;5066345;28;19920;-72
2023/11/16 02:05:36;;;;;;;2.53;1.10;;;;;;;20.34;43.78;101333.59;5063398;28;20139;-71
2023/11/16 02:08:07;;;;;;;1.75;0.70;;;;;;;20.33;43.89;101338.06;5062173;28;20447;-72
2023/11/16 02:10:32;;;;;;;1.38;0.77;;;;;;;20.31;43.81;101339.22;5059151;28;20041;-72
2023/11/16 02:13:02;;;;;;;1.58;0.77;;;;;;;20.11;43.81;101315.81;5062517;28;20029;-72
2023/11/16 02:15:31;;;;;;;;;;;;;;;20.34;43.77;101354.75;5080985;28;20035;-72
2023/11/16 02:17:58;;;;;;;2.67;0.98;;;;;;;20.31;43.83;101363.84;5065166;28;20273;-72
2023/11/16 02:20:24;;;;;;;1.70;0.80;;;;;;;20.32;43.78;101364.69;5061517;28;20025;-72
2023/11/16 02:22:52;;;;;;;1.38;0.68;;;;;;;20.30;43.68;101364.03;5058631;28;20048;-71
2023/11/16 02:25:18;;;;;;;1.95;0.70;;;;;;;20.30;43.75;101370.16;5063622;28;20128;-72
2023/11/16 02:27:44;;;;;;;2.67;0.68;;;;;;;20.26;43.78;101368.81;5060121;28;20047;-72
2023/11/16 02:30:12;;;;;;;1.63;1.30;;;;;;;20.28;43.90;101376.56;5061689;28;20117;-72
2023/11/16 02:32:38;;;;;;;1.58;0.82;;;;;;;20.31;43.72;101374.44;5059841;28;21984;-72
2023/11/16 02:35:04;;;;;;;1.05;0.63;;;;;;;20.22;43.51;101356.94;5059503;28;20033;-72
2023/11/16 02:37:29;;;;;;;1.77;0.90;;;;;;;20.32;43.79;101380.56;5052425;28;20147;-72
2023/11/16 02:39:56;;;;;;;2.03;0.77;;;;;;;20.30;43.61;101374.59;5059414;28;20048;-72
2023/11/16 02:42:21;;;;;;;1.23;0.60;;;;;;;20.31;43.83;101382.38;5058706;28;20123;-72
2023/11/16 02:44:51;;;;;;;1.77;0.73;;;;;;;20.30;43.89;101377.25;5064033;28;20537;-72
2023/11/16 02:47:17;;;;;;;1.92;0.90;;;;;;;20.29;43.88;101381.72;5063689;28;20114;-72
2023/11/16 02:49:42;;;;;;;3.40;0.93;;;;;;;20.28;43.76;101379.22;5062618;28;20051;-71
2023/11/16 02:52:10;;;;;;;1.45;0.82;;;;;;;20.27;43.85;101375.75;5064809;28;20164;-72
2023/11/16 02:54:38;;;;;;;0.98;0.60;;;;;;;20.30;43.69;101386.00;5061985;28;20033;-72
2023/11/16 02:57:06;;;;;;;1.63;0.60;;;;;;;20.30;43.65;101385.19;5058665;28;20136;-72
2023/11/16 02:59:32;;;;;;;1.08;0.85;;;;;;;20.31;43.87;101398.25;5059439;28;20537;-72
2023/11/16 03:01:58;;;;;;;1.27;0.65;;;;;;;20.29;43.78;101400.22;5070987;28;20041;-72
2023/11/16 03:04:24;;;;;;;2.20;0.57;;;;;;;20.30;43.66;101396.59;5064818;28;20044;-72
2023/11/16 03:06:51;;;;;;;1.35;0.85;;;;;;;20.30;43.80;101409.81;5060254;28;20048;-72
2023/11/16 03:09:17;;;;;;;1.33;0.80;;;;;;;20.30;43.79;101409.00;5060602;28;20437;-72
2023/11/16 03:11:43;;;;;;;2.10;0.60;;;;;;;20.24;43.85;101399.88;5073904;28;20055;-72
2023/11/16 03:14:09;;;;;;;0.90;0.55;;;;;;;20.13;43.91;101381.75;5062053;28;20044;-72
2023/11/16 03:16:47;;;;;;;1.58;0.65;;;;;;;20.31;43.80;101411.47;5063942;28;20250;-72
2023/11/16 03:19:13;;;;;;;1.63;0.68;;;;;;;20.31;43.83;101413.28;5058544;28;20038;-72
2023/11/16 03:21:39;;;;;;;1.60;0.63;;;;;;;20.32;43.88;101415.75;5063656;28;20028;-72
2023/11/16 03:24:05;;;;;;;1.75;0.60;;;;;;;20.32;43.83;101422.88;5066495;28;20408;-72
2023/11/16 03:26:31;;;;;;;1.27;0.80;;;;;;;20.31;43.72;101432.63;5068488;28;20048;-72
2023/11/16 03:28:59;;;;;;;0.95;0.70;;;;;;;20.29;43.90;101425.81;5070216;28;20047;-72
2023/11/16 03:31:25;;;;;;;1.30;0.65;;;;;;;20.27;43.87;101426.00;5065627;28;20112;-72
2023/11/16 03:33:51;;;;;;;1.42;0.68;;;;;;;20.31;43.75;101423.88;5063216;28;20116;-72
2023/11/16 03:36:16;;;;;;;1.25;0.70;;;;;;;20.31;43.87;101419.41;5060626;28;20429;-72
2023/11/16 03:38:42;;;;;;;0.40;0.40;;;;;;;20.29;43.97;101418.75;5079743;28;20028;-72
2023/11/16 03:41:09;;;;;;;1.13;0.52;;;;;;;20.29;43.77;101412.59;5063872;28;20398;-72
2023/11/16 03:43:35;;;;;;;1.88;0.60;;;;;;;20.26;43.97;101416.41;5069797;28;20028;-72
2023/11/16 03:46:01;;;;;;;0.70;0.43;;;;;;;20.20;43.91;101406.50;5068570;28;20568;-72
2023/11/16 03:48:26;;;;;;;1.13;0.80;;;;;;;20.27;43.84;101418.06;5069682;28;20040;-72
2023/11/16 03:50:52;;;;;;;1.50;0.75;;;;;;;20.25;44.01;101422.69;5064066;28;20028;-72
2023/11/16 03:53:17;;;;;;;0.88;0.65;;;;;;;20.25;44.06;101424.50;5066633;28;20047;-72
2023/11/16 03:55:43;;;;;;;0.52;0.32;;;;;;;20.23;43.77;101424.69;5061402;28;20040;-72
2023/11/16 03:58:08;;;;;;;0.50;0.50;;;;;;;20.25;43.95;101427.16;5058114;28;20040;-72
2023/11/16 04:00:34;;;;;;;1.00;0.63;;;;;;;20.27;43.94;101430.47;5062966;28;20121;-72
2023/11/16 04:03:00;;;;;;;2.60;0.80;;;;;;;20.26;43.87;101434.94;5061003;28;20044;-72
2023/11/16 04:05:26;;;;;;;0.73;0.47;;;;;;;20.14;44.08;101417.78;5062547;28;20560;-72
2023/11/16 04:07:55;;;;;;;0.75;0.55;;;;;;;20.17;43.91;101414.78;5078317;28;20036;-72
2023/11/16 04:10:20;;;;;;;0.63;0.60;;;;;;;20.23;43.94;101433.44;5058792;28;20167;-72
2023/11/16 04:12:46;;;;;;;2.10;0.63;;;;;;;20.18;44.03;101433.13;5065148;28;20097;-72
2023/11/16 04:15:13;;;;;;;1.35;0.55;;;;;;;20.22;44.09;101434.44;5061288;28;20027;-72
2023/11/16 04:17:45;;;;;;;2.83;0.70;;;;;;;20.17;44.04;101434.13;5063704;28;20498;-72
2023/11/16 04:20:12;;;;;;;2.70;0.70;;;;;;;20.19;43.97;101440.06;5046408;28;20033;-71
2023/11/16 04:22:39;;;;;;;1.65;0.60;;;;;;;20.22;44.00;101445.03;5061156;28;20119;-72
2023/11/16 04:25:17;;;;;;;0.88;0.40;;;;;;;20.21;43.98;101446.00;5063399;28;20047;-72
2023/11/16 04:27:45;;;;;;;1.55;0.47;;;;;;;20.20;44.00;101441.72;5055076;28;20101;-72
2023/11/16 04:30:13;;;;;;;1.23;0.47;;;;;;;20.19;44.04;101440.06;5056492;28;20054;-72
2023/11/16 04:32:42;;;;;;;0.95;0.65;;;;;;;20.17;44.11;101428.84;5056908;28;20387;-72
2023/11/16 04:35:15;;;;;;;1.55;0.50;;;;;;;20.15;43.95;101435.28;5060412;28;20032;-72
2023/11/16 04:37:43;;;;;;;1.60;0.55;;;;;;;20.22;43.89;101442.38;5053499;28;20084;-72
2023/11/16 04:40:09;;;;;;;0.50;0.40;;;;;;;20.20;43.94;101439.06;5059474;28;20167;-72
2023/11/16 04:42:35;;;;;;;1.55;0.88;;;;;;;20.12;43.87;101428.53;5064390;28;20036;-72
2023/11/16 04:45:05;;;;;;;1.25;0.75;;;;;;;20.20;43.91;101452.28;5063698;28;20045;-72
2023/11/16 04:47:31;;;;;;;0.80;0.57;;;;;;;20.22;43.85;101455.59;5063591;28;20525;-72
2023/11/16 04:49:57;;;;;;;0.70;0.50;;;;;;;20.21;43.94;101464.53;5066038;28;20033;-72
2023/11/16 04:52:23;;;;;;;0.77;0.60;;;;;;;20.11;43.90;101441.91;5063983;28;20044;-72
2023/11/16 04:54:50;;;;;;;0.82;0.45;;;;;;;20.20;43.94;101452.28;5069079;28;20068;-72
2023/11/16 04:57:15;;;;;;;0.55;0.45;;;;;;;20.20;43.99;101456.75;5059566;28;20056;-72
2023/11/16 04:59:43;;;;;;;1.10;0.60;;;;;;;20.13;44.07;101438.09;5064582;28;20158;-72
2023/11/16 05:02:08;;;;;;;0.93;0.60;;;;;;;20.21;44.10;101440.72;5068057;28;20413;-72
2023/11/16 05:04:34;;;;;;;1.15;0.50;;;;;;;20.20;43.97;101443.53;5067264;28;20040;-72
2023/11/16 05:06:59;;;;;;;0.85;0.57;;;;;;;20.20;43.99;101454.13;5068518;28;20045;-72
2023/11/16 05:09:26;;;;;;;2.00;1.38;;;;;;;20.20;44.05;101454.13;5068643;28;20105;-72
2023/11/16 05:11:54;;;;;;;1.20;0.80;;;;;;;20.19;43.89;101448.00;5063176;28;20591;-72
2023/11/16 05:14:20;;;;;;;1.77;0.73;;;;;;;20.16;43.90;101445.69;5069078;28;20926;-72
2023/11/16 05:16:46;;;;;;;1.08;0.65;;;;;;;20.19;43.99;101457.75;5060933;28;20501;-72
2023/11/16 05:19:12;;;;;;;0.28;0.17;;;;;;;20.16;43.98;101455.44;5062290;28;20037;-71
2023/11/16 05:21:37;;;;;;;0.35;0.28;;;;;;;20.18;43.99;101467.50;5064004;28;20032;-72
2023/11/16 05:24:03;;;;;;;0.47;0.47;;;;;;;20.18;44.00;101461.41;5064458;28;20043;-72
2023/11/16 05:26:30;;;;;;;1.83;0.38;;;;;;;20.13;44.21;101453.97;5068533;28;20780;-72
2023/11/16 05:28:56;;;;;;;1.13;0.40;;;;;;;20.12;43.97;101451.50;5060296;28;20049;-72
2023/11/16 05:31:21;;;;;;;0.38;0.38;;;;;;;20.11;43.96;101455.97;5060855;28;20098;-71
2023/11/16 05:33:47;;;;;;;0.70;0.40;;;;;;;20.17;44.03;101462.38;5062752;28;20040;-72
2023/11/16 05:36:12;;;;;;;0.47;0.30;;;;;;;20.15;43.91;101465.19;5066552;28;20032;-72
2023/11/16 05:38:38;;;;;;;0.70;0.50;;;;;;;20.15;44.01;101459.09;5061439;28;20037;-72
2023/11/16 05:41:04;;;;;;;1.38;0.43;;;;;;;20.15;43.86;101462.56;5065076;28;20797;-72
2023/11/16 05:43:30;;;;;;;0.70;0.40;;;;;;;19.94;43.98;101437.63;5063968;28;20047;-72
2023/11/16 05:45:56;;;;;;;0.55;0.40;;;;;;;20.09;44.24;101459.72;5059567;28;20040;-72
2023/11/16 05:48:21;;;;;;;1.45;0.45;;;;;;;20.08;43.95;101461.56;5068894;28;20051;-72
2023/11/16 05:50:47;;;;;;;0.95;0.40;;;;;;;20.07;43.99;101462.53;5064338;28;20485;-71
2023/11/16 05:53:13;;;;;;;0.47;0.45;;;;;;;20.02;44.06;101443.72;5067679;28;20029;-71
2023/11/16 05:55:38;;;;;;;0.55;0.30;;;;;;;20.10;44.02;101459.56;5067373;28;20109;-72
2023/11/16 05:58:07;;;;;;;0.25;0.25;;;;;;;20.08;43.96;101464.19;5064844;28;20058;-72
2023/11/16 06:00:36;;;;;;;0.43;0.40;;;;;;;20.08;44.02;101461.56;5070852;28;20040;-72
2023/11/16 06:03:02;;;;;;;0.98;0.40;;;;;;;20.10;44.04;101466.66;5061800;28;20052;-72
2023/11/16 06:05:28;;;;;;;0.35;0.20;;;;;;;20.10;44.06;101459.56;5060996;28;20671;-71
2023/11/16 06:07:55;;;;;;;0.47;0.47;;;;;;;20.03;44.07;101460.41;5064853;28;20033;-72
2023/11/16 06:10:21;;;;;;;1.98;0.50;;;;;;;20.10;44.03;101461.38;5069021;28;20033;-72
2023/11/16 06:12:46;;;;;;;0.40;0.20;;;;;;;20.00;43.93;101448.34;5068412;28;20050;-72
2023/11/16 06:15:14;;;;;;;0.57;0.40;;;;;;;20.09;44.01;101455.28;5062704;28;20032;-72
2023/11/16 06:17:41;;;;;;;0.55;0.20;;;;;;;20.11;43.90;101457.78;5072675;28;20555;-72
2023/11/16 06:20:10;;;;;;;0.75;0.40;;;;;;;20.09;44.05;101452.63;5059302;28;20090;-72
2023/11/16 06:22:40;;;;;;;0.95;0.40;;;;;;;20.06;43.84;101445.03;5066158;28;20312;-72
2023/11/16 06:25:07;;;;;;;;;;;;;;;20.10;44.06;101464.03;5067600;28;20068;-72
2023/11/16 06:27:34;;;;;;;0.98;0.60;;;;;;;20.08;44.05;101460.72;5069693;28;20412;-71
2023/11/16 06:29:59;;;;;;;1.02;0.70;;;;;;;20.11;44.18;101466.53;5062247;28;20444;-72
2023/11/16 06:32:25;;;;;;;0.40;0.40;;;;;;;20.10;44.11;101470.13;5063967;28;20052;-72
2023/11/16 06:34:50;;;;;;;0.60;0.55;;;;;;;20.01;44.04;101455.28;5063636;28;20052;-72
2023/11/16 06:37:16;;;;;;;1.63;0.70;;;;;;;20.13;44.03;101471.66;5064561;28;20041;-72
2023/11/16 06:39:42;;;;;;;0.82;0.47;;;;;;;20.10;44.10;101472.78;5064351;28;20032;-72
2023/11/16 06:42:07;;;;;;;0.00;0.00;;;;;;;20.11;44.05;101471.00;5064767;28;20037;-72
2023/11/16 06:44:33;;;;;;;0.60;0.35;;;;;;;20.07;44.07;101472.28;5073414;28;20037;-72
2023/11/16 06:46:58;;;;;;;0.95;0.40;;;;;;;20.13;43.99;101476.94;5060585;28;20486;-72
2023/11/16 06:49:27;;;;;;;0.73;0.40;;;;;;;20.11;43.97;101476.28;5064401;28;20040;-72
2023/11/16 06:51:53;;;;;;;0.60;0.50;;;;;;;20.08;44.03;101455.44;5066072;28;20293;-72
2023/11/16 06:54:21;;;;;;;0.43;0.32;;;;;;;20.08;44.12;101455.44;5063381;28;20111;-72
2023/11/16 06:56:50;;;;;;;0.88;0.32;;;;;;;20.06;44.08;101460.06;5057899;28;20060;-72
2023/11/16 06:59:19;;;;;;;1.23;0.30;;;;;;;20.13;44.07;101476.94;5064949;28;20032;-72
2023/11/16 07:01:47;;;;;;;0.57;0.40;;;;;;;20.10;44.06;101474.59;5065297;28;20048;-72
2023/11/16 07:04:15;;;;;;;0.75;0.35;;;;;;;20.12;44.04;101486.69;5061407;28;20242;-72
2023/11/16 07:06:41;;;;;;;0.30;0.30;;;;;;;20.08;44.06;101481.88;5065841;28;20110;-72
2023/11/16 07:09:06;;;;;;;1.20;0.68;;;;;;;20.10;44.08;101485.19;5064899;28;20124;-72
2023/11/16 07:11:32;;;;;;;0.25;0.25;;;;;;;20.13;44.03;101482.22;5060985;28;20520;-72
2023/11/16 07:13:58;;;;;;;0.85;0.32;;;;;;;20.13;44.21;101484.88;5066105;28;20156;-72
2023/11/16 07:16:23;;;;;;;0.45;0.25;;;;;;;20.09;44.02;101478.25;5066557;28;20028;-72
2023/11/16 07:18:49;;;;;;;0.80;0.22;;;;;;;20.06;44.06;101471.47;5064456;28;20915;-72
2023/11/16 07:21:14;;;;;;;0.75;0.52;;;;;;;20.12;43.92;101484.06;5065161;28;20036;-72
2023/11/16 07:23:43;;;;;;;0.88;0.60;;;;;;;20.06;43.84;101471.47;5061412;28;20044;-72
2023/11/16 07:26:09;;;;;;;0.85;0.50;;;;;;;20.39;43.61;101501.38;5062411;28;20037;-72
2023/11/16 07:28:36;;;;;;;1.15;0.60;;;;;;;20.61;43.13;101494.59;5061990;28;20051;-72
2023/11/16 07:31:06;;;;;;;0.43;0.22;;;;;;;20.86;42.94;101486.59;5060775;28;20041;-72
2023/11/16 07:33:34;;;;;;;0.67;0.33;;;;;;;21.10;42.46;101478.56;5060379;28;20047;-72
2023/11/16 07:36:02;;;;;;;0.55;0.30;;;;;;;21.22;42.19;101457.81;5060602;28;20036;-72
2023/11/16 07:38:28;;;;;;;0.70;0.63;;;;;;;21.24;42.40;101463.75;5064894;28;20519;-72
2023/11/16 07:40:57;;;;;;;0.32;0.32;;;;;;;21.09;42.54;101447.78;5065875;28;20056;-71
2023/11/16 07:43:26;;;;;;;1.73;0.30;;;;;;;21.01;42.89;101446.00;5060063;28;20367;-72
2023/11/16 07:45:52;;;;;;;0.50;0.37;;;;;;;20.94;43.02;101446.84;5062372;28;20076;-72
2023/11/16 07:48:19;;;;;;;0.20;0.13;;;;;;;20.88;43.21;101437.78;5067878;28;20043;-72
2023/11/16 07:50:44;;;;;;;0.68;0.47;;;;;;;20.78;43.11;101431.84;5059934;28;20691;-72
2023/11/16 07:53:10;;;;;;;0.50;0.35;;;;;;;20.73;43.29;101439.47;5063769;28;20028;-72
2023/11/16 07:55:37;;;;;;;1.02;0.50;;;;;;;20.70;43.32;101439.84;5060421;28;20033;-72
2023/11/16 07:58:03;;;;;;;0.30;0.30;;;;;;;20.67;43.65;101427.78;5056680;28;20367;-72
2023/11/16 08:00:44;;;;;;;0.88;0.55;;;;;;;20.70;43.40;101437.19;5057770;28;20053;-72
2023/11/16 08:05:54;;;;;;;0.68;0.38;;;;;;;20.59;43.73;101414.53;5060392;28;20056;-72
2023/11/16 08:08:20;;;;;;;0.40;0.25;;;;;;;20.64;43.69;101427.25;5067202;28;20044;-72
2023/11/16 08:10:50;;;;;;;0.57;0.22;;;;;;;20.60;43.70;101418.84;5058701;28;20560;-72
2023/11/16 08:13:19;;;;;;;0.90;0.35;;;;;;;20.56;43.61;101422.00;5056025;28;20048;-72
2023/11/16 08:15:52;;;;;;;2.30;0.60;;;;;;;20.64;43.71;101448.44;5063645;28;20050;-72
2023/11/16 08:18:21;;;;;;;0.30;0.13;;;;;;;20.61;43.49;101441.66;5066257;28;20045;-73
2023/11/16 08:20:47;;;;;;;0.30;0.30;;;;;;;20.69;43.55;101444.31;5061579;28;21110;-71
2023/11/16 08:23:13;;;;;;;0.28;0.28;;;;;;;20.61;43.57;101433.72;5063668;28;20036;-73
2023/11/16 08:25:39;;;;;;;0.65;0.55;;;;;;;20.71;43.55;101444.94;5068471;28;20032;-71
2023/11/16 08:28:08;;;;;;;0.43;0.20;;;;;;;20.72;43.57;101446.59;5069119;28;20048;-72
2023/11/16 08:30:34;;;;;;;1.83;0.75;;;;;;;20.67;43.45;101429.59;5070168;28;20042;-72
2023/11/16 08:33:00;;;;;;;0.93;0.47;;;;;;;20.66;43.42;101425.28;5064106;28;20037;-72
2023/11/16 08:35:26;;;;;;;0.43;0.30;;;;;;;20.69;43.40;101436.34;5066809;28;20115;-72
2023/11/16 08:37:54;;;;;;;1.83;0.65;;;;;;;20.70;43.36;101435.34;5069157;28;20581;-72
2023/11/16 08:40:19;;;;;;;1.17;0.50;;;;;;;20.68;43.51;101439.19;5065828;28;20040;-71
2023/11/16 08:42:47;;;;;;;0.98;0.40;;;;;;;20.66;43.64;101441.19;5068867;28;20393;-72
2023/11/16 08:45:24;;;;;;;0.68;0.60;;;;;;;20.67;43.74;101448.13;5064400;28;20770;-72
2023/11/16 08:47:59;;;;;;;0.77;0.40;;;;;;;20.66;43.35;101449.94;5061973;28;20048;-71
2023/11/16 08:50:25;;;;;;;0.55;0.50;;;;;;;20.63;43.38;101449.44;5059336;28;20801;-72
2023/11/16 08:52:51;;;;;;;0.93;0.50;;;;;;;20.58;43.57;101444.66;5063943;28;20032;-72
2023/11/16 08:55:21;;;;;;;0.93;0.65;;;;;;;20.64;43.51;101440.50;5066713;28;20036;-72
2023/11/16 08:57:47;;;;;;;;;;;;;;;20.77;43.20;101440.78;5065852;28;20033;-72
2023/11/16 09:03:16;;;;;;;0.30;0.22;;;;;;;21.31;42.14;101433.78;5033081;28;20251;-72
2023/11/16 09:05:42;;;;;;;1.23;0.60;;;;;;;21.28;41.99;101422.72;5056270;28;20059;-72
2023/11/16 09:08:11;;;;;;;1.63;0.75;;;;;;;21.19;42.18;101431.69;5070009;28;20035;-72
2023/11/16 09:10:37;;;;;;;0.77;0.30;;;;;;;21.26;42.58;101454.66;5062232;28;20044;-72
2023/11/16 09:13:03;;;;;;;0.80;0.60;;;;;;;21.23;42.37;101454.16;5072545;28;20539;-72
2023/11/16 09:15:30;;;;;;;1.02;0.90;;;;;;;21.12;42.75;101445.59;5067556;28;20085;-72
2023/11/16 09:17:58;;;;;;;0.52;0.52;;;;;;;21.08;42.60;101449.59;5067060;28;20072;-72
2023/11/16 09:20:25;;;;;;;1.77;0.50;;;;;;;21.06;42.68;101451.59;5061642;28;20106;-72
2023/11/16 09:22:53;;;;;;;1.23;0.70;;;;;;;21.01;42.63;101445.19;5064370;28;20040;-72
2023/11/16 09:25:19;;;;;;;0.50;0.47;;;;;;;21.03;42.96;101453.78;5062612;28;20229;-72
2023/11/16 09:27:50;;;;;;;1.65;0.77;;;;;;;20.95;42.75;101440.56;5066671;28;20668;-72
2023/11/16 09:30:22;;;;;;;1.25;0.70;;;;;;;21.00;43.12;101452.25;5069291;28;20064;-72
2023/11/16 09:32:55;;;;;;;1.20;0.65;;;;;;;20.98;42.88;101451.63;5066254;28;20542;-72
2023/11/16 09:35:22;;;;;;;2.28;0.55;;;;;;;20.98;43.13;101454.25;5071450;28;20033;-72
2023/11/16 09:37:49;;;;;;;1.88;0.60;;;;;;;20.97;43.16;101455.25;5067365;28;20042;-71
2023/11/16 09:40:24;;;;;;;1.92;0.68;;;;;;;20.93;43.21;101445.19;5071543;28;20921;-71
2023/11/16 09:43:00;;;;;;;1.20;0.63;;;;;;;20.95;43.20;101444.03;5058298;28;20032;-72
2023/11/16 09:45:31;;;;;;;1.80;0.80;;;;;;;20.92;43.13;101440.91;5071240;28;20039;-71
2023/11/16 09:47:59;;;;;;;0.80;0.63;;;;;;;20.94;42.90;101446.84;5060246;28;20033;-72
2023/11/16 09:50:28;;;;;;;0.80;0.80;;;;;;;20.90;42.97;101450.84;5067312;28;20036;-71
2023/11/16 09:53:06;;;;;;;0.73;0.73;;;;;;;20.88;43.06;101455.47;5061245;28;20036;-73
2023/11/16 09:55:33;;;;;;;0.80;0.70;;;;;;;20.86;42.93;101446.88;5054242;28;20032;-73
2023/11/16 09:58:07;;;;;;;1.00;0.45;;;;;;;20.88;43.07;101463.44;5063698;28;20031;-73
2023/11/16 10:00:34;;;;;;;1.05;0.75;;;;;;;20.85;42.99;101458.47;5066328;28;20039;-73
2023/11/16 10:03:00;;;;;;;1.20;0.70;;;;;;;20.84;43.23;101455.00;5060598;28;20040;-73
2023/11/16 10:05:27;;;;;;;0.50;0.50;;;;;;;20.87;43.10;101459.13;5039660;28;20138;-73
2023/11/16 10:07:53;;;;;;;0.50;0.40;;;;;;;20.84;43.17;101454.19;5073815;28;20044;-73
2023/11/16 10:10:23;;;;;;;1.80;0.60;;;;;;;20.78;43.06;101448.56;5060567;28;20591;-73
2023/11/16 10:12:50;;;;;;;1.17;0.57;;;;;;;20.80;43.19;101438.63;5061145;28;20119;-73
2023/11/16 10:15:20;;;;;;;1.40;0.73;;;;;;;20.85;43.17;101464.59;5059221;28;20099;-73
2023/11/16 10:17:49;;;;;;;1.13;0.70;;;;;;;20.79;43.32;101444.09;5057962;28;20550;-71
2023/11/16 10:20:20;;;;;;;0.85;0.70;;;;;;;20.80;43.05;101445.72;5057573;28;20174;-71
2023/11/16 10:22:47;;;;;;;1.50;0.80;;;;;;;20.82;43.24;101441.09;5057546;28;20045;-72
2023/11/16 10:25:14;;;;;;;0.77;0.50;;;;;;;20.80;43.35;101432.50;5066574;28;20040;-72
2023/11/16 10:27:44;;;;;;;1.00;0.80;;;;;;;20.79;43.38;101426.38;5062494;28;20042;-72
2023/11/16 10:30:15;;;;;;;1.73;1.58;;;;;;;20.78;43.30;101419.44;5065823;28;20036;-72
2023/11/16 10:32:42;;;;;;;1.38;0.70;;;;;;;20.78;43.00;101421.25;5060612;28;20036;-72
2023/11/16 10:35:13;;;;;;;1.50;0.82;;;;;;;20.81;43.20;101429.69;5064512;28;20046;-72
2023/11/16 10:37:41;;;;;;;1.05;0.85;;;;;;;20.83;43.04;101418.94;5062910;28;20094;-72
2023/11/16 10:40:10;;;;;;;0.65;0.52;;;;;;;20.99;42.79;101412.72;5060146;28;20036;-71
2023/11/16 10:42:41;;;;;;;0.63;0.63;;;;;;;21.20;42.34;101407.66;5064140;28;20032;-72
2023/11/16 10:45:16;;;;;;;1.08;0.47;;;;;;;21.20;42.51;101390.94;5061353;28;20098;-72
2023/11/16 10:47:43;;;;;;;0.77;0.57;;;;;;;21.13;42.45;101370.44;5055304;28;20778;-72
2023/11/16 10:50:15;;;;;;;0.98;0.50;;;;;;;21.15;42.59;101386.16;5058851;28;20040;-73
2023/11/16 10:52:47;;;;;;;1.95;0.50;;;;;;;21.15;42.56;101378.22;5061243;28;20563;-72
2023/11/16 10:55:16;;;;;;;0.82;0.73;;;;;;;21.13;42.91;101377.56;5071900;28;20397;-72
2023/11/16 10:57:47;;;;;;;0.90;0.70;;;;;;;21.10;42.71;101368.16;5067858;28;20036;-72
2023/11/16 11:00:18;;;;;;;0.57;0.45;;;;;;;21.04;42.87;101362.75;5069856;28;20127;-72
2023/11/16 11:02:49;;;;;;;0.50;0.50;;;;;;;21.07;42.72;101376.44;5065074;28;20072;-72
2023/11/16 11:05:19;;;;;;;1.55;0.75;;;;;;;21.05;43.10;101362.56;5066505;28;20052;-72
2023/11/16 11:07:49;;;;;;;1.42;0.73;;;;;;;21.02;43.10;101362.91;5062008;28;20036;-72
2023/11/16 11:10:17;;;;;;;1.15;0.63;;;;;;;21.05;43.14;101361.75;5067095;28;20038;-72
2023/11/16 11:12:47;;;;;;;0.60;0.60;;;;;;;21.03;43.11;101361.09;5063675;28;20123;-72
2023/11/16 11:15:34;;;;;;;0.85;0.50;;;;;;;20.99;43.25;101371.19;5065111;28;20031;-71
2023/11/16 11:18:00;;;;;;;1.63;0.80;;;;;;;20.99;43.05;101365.06;5061878;28;20064;-72
2023/11/16 11:20:44;;;;;;;1.02;0.65;;;;;;;20.98;43.26;101368.72;5061548;28;21216;-72
2023/11/16 11:23:15;;;;;;;1.08;0.55;;;;;;;20.95;43.01;101367.25;5067176;28;20044;-72
2023/11/16 11:25:41;;;;;;;1.00;0.60;;;;;;;20.96;43.11;101376.00;5067860;28;20037;-72
2023/11/16 11:28:11;;;;;;;0.70;0.50;;;;;;;20.90;43.02;101369.59;5071316;28;20046;-72
2023/11/16 11:30:49;;;;;;;;;;;;;;;20.93;43.31;101366.59;5074092;28;20040;-72
2023/11/16 11:33:39;;;;;;;1.10;0.82;;;;;;;20.88;43.19;101368.94;5063796;28;20488;-72
2023/11/16 11:36:09;;;;;;;0.63;0.63;;;;;;;20.83;43.04;101349.31;5054259;28;20045;-72